sensor_id;sensor_type;location;lat;lon;timestamp;temperature;humidity
16263;DHT22;8239;48.594;8.598;2023-07-13T00:00:20;15.50;99.90
16263;DHT22;8239;48.594;8.598;2023-07-13T00:02:49;15.40;99.90
16263;DHT22;8239;48.594;8.598;2023-07-13T00:05:19;15.40;99.90
16263;DHT22;8239;48.594;8.598;2023-07-13T00:07:46;15.30;99.90
16263;DHT22;8239;48.594;8.598;2023-07-13T00:10:13;15.30;99.90
16263;DHT22;8239;48.594;8.598;2023-07-13T00:12:41;15.30;99.90
16263;DHT22;8239;48.594;8.598;2023-07-13T00:15:12;15.30;99.90
16263;DHT22;8239;48.594;8.598;2023-07-13T00:17:41;15.30;99.90
16263;DHT22;8239;48.594;8.598;2023-07-13T00:20:11;15.20;99.90
16263;DHT22;8239;48.594;8.598;2023-07-13T00:22:39;15.20;99.90
16263;DHT22;8239;48.594;8.598;2023-07-13T00:25:08;15.30;99.90
16263;DHT22;8239;48.594;8.598;2023-07-13T00:27:35;15.30;99.90
16263;DHT22;8239;48.594;8.598;2023-07-13T00:30:03;15.30;99.90
16263;DHT22;8239;48.594;8.598;2023-07-13T00:32:31;15.30;99.90
16263;DHT22;8239;48.594;8.598;2023-07-13T00:34:58;15.30;99.90
16263;DHT22;8239;48.594;8.598;2023-07-13T00:37:27;15.40;99.90
16263;DHT22;8239;48.594;8.598;2023-07-13T00:39:54;15.40;99.90
16263;DHT22;8239;48.594;8.598;2023-07-13T00:42:21;15.50;99.90
16263;DHT22;8239;48.594;8.598;2023-07-13T00:45:07;15.50;99.90
16263;DHT22;8239;48.594;8.598;2023-07-13T00:47:34;15.50;99.90
16263;DHT22;8239;48.594;8.598;2023-07-13T00:50:03;15.50;99.90
16263;DHT22;8239;48.594;8.598;2023-07-13T00:52:33;15.50;99.90
16263;DHT22;8239;48.594;8.598;2023-07-13T00:55:00;15.60;99.90
16263;DHT22;8239;48.594;8.598;2023-07-13T00:57:27;15.60;99.90
16263;DHT22;8239;48.594;8.598;2023-07-13T00:59:57;15.60;99.90
16263;DHT22;8239;48.594;8.598;2023-07-13T01:02:26;15.50;99.90
16263;DHT22;8239;48.594;8.598;2023-07-13T01:04:56;15.50;99.90
16263;DHT22;8239;48.594;8.598;2023-07-13T01:07:23;15.50;99.90
16263;DHT22;8239;48.594;8.598;2023-07-13T01:09:51;15.40;99.90
16263;DHT22;8239;48.594;8.598;2023-07-13T01:12:18;15.30;99.90
16263;DHT22;8239;48.594;8.598;2023-07-13T01:14:45;15.20;99.90
16263;DHT22;8239;48.594;8.598;2023-07-13T01:17:12;15.10;99.90
16263;DHT22;8239;48.594;8.598;2023-07-13T01:19:43;15.00;99.90
16263;DHT22;8239;48.594;8.598;2023-07-13T01:22:13;14.80;99.90
16263;DHT22;8239;48.594;8.598;2023-07-13T01:24:42;14.70;99.90
16263;DHT22;8239;48.594;8.598;2023-07-13T01:27:11;14.60;99.90
16263;DHT22;8239;48.594;8.598;2023-07-13T01:29:39;14.50;99.90
16263;DHT22;8239;48.594;8.598;2023-07-13T01:32:09;14.40;99.90
16263;DHT22;8239;48.594;8.598;2023-07-13T01:34:36;14.30;99.90
16263;DHT22;8239;48.594;8.598;2023-07-13T01:37:04;14.20;99.90
16263;DHT22;8239;48.594;8.598;2023-07-13T01:39:33;14.10;99.90
16263;DHT22;8239;48.594;8.598;2023-07-13T01:42:00;14.00;99.90
16263;DHT22;8239;48.594;8.598;2023-07-13T01:44:27;14.00;99.90
16263;DHT22;8239;48.594;8.598;2023-07-13T01:46:54;13.90;99.90
16263;DHT22;8239;48.594;8.598;2023-07-13T01:49:21;13.80;99.90
16263;DHT22;8239;48.594;8.598;2023-07-13T01:51:48;13.70;99.90
16263;DHT22;8239;48.594;8.598;2023-07-13T01:54:15;13.70;99.90
16263;DHT22;8239;48.594;8.598;2023-07-13T01:56:43;13.60;99.90
16263;DHT22;8239;48.594;8.598;2023-07-13T01:59:11;13.50;99.90
16263;DHT22;8239;48.594;8.598;2023-07-13T02:01:38;13.50;99.90
16263;DHT22;8239;48.594;8.598;2023-07-13T02:04:05;13.40;99.90
16263;DHT22;8239;48.594;8.598;2023-07-13T02:06:32;13.40;99.90
16263;DHT22;8239;48.594;8.598;2023-07-13T02:09:00;13.40;99.90
16263;DHT22;8239;48.594;8.598;2023-07-13T02:11:27;13.30;99.90
16263;DHT22;8239;48.594;8.598;2023-07-13T02:13:59;13.30;99.90
16263;DHT22;8239;48.594;8.598;2023-07-13T02:16:27;13.30;99.90
16263;DHT22;8239;48.594;8.598;2023-07-13T02:18:54;13.20;99.90
16263;DHT22;8239;48.594;8.598;2023-07-13T02:21:22;13.10;99.90
16263;DHT22;8239;48.594;8.598;2023-07-13T02:23:49;13.00;99.90
16263;DHT22;8239;48.594;8.598;2023-07-13T02:26:16;13.00;99.90
16263;DHT22;8239;48.594;8.598;2023-07-13T02:28:43;12.90;99.90
16263;DHT22;8239;48.594;8.598;2023-07-13T02:31:14;12.80;99.90
16263;DHT22;8239;48.594;8.598;2023-07-13T02:33:41;12.80;99.90
16263;DHT22;8239;48.594;8.598;2023-07-13T02:36:08;12.60;99.90
16263;DHT22;8239;48.594;8.598;2023-07-13T02:38:36;12.60;99.90
16263;DHT22;8239;48.594;8.598;2023-07-13T02:41:04;12.50;99.90
16263;DHT22;8239;48.594;8.598;2023-07-13T02:43:32;12.40;99.90
16263;DHT22;8239;48.594;8.598;2023-07-13T02:45:59;12.40;99.90
16263;DHT22;8239;48.594;8.598;2023-07-13T02:48:34;12.30;99.90
16263;DHT22;8239;48.594;8.598;2023-07-13T02:51:01;12.30;99.90
16263;DHT22;8239;48.594;8.598;2023-07-13T02:53:28;12.20;99.90
16263;DHT22;8239;48.594;8.598;2023-07-13T02:55:55;12.20;99.90
16263;DHT22;8239;48.594;8.598;2023-07-13T02:58:22;12.20;99.90
16263;DHT22;8239;48.594;8.598;2023-07-13T03:00:49;12.20;99.90
16263;DHT22;8239;48.594;8.598;2023-07-13T03:03:16;12.20;99.90
16263;DHT22;8239;48.594;8.598;2023-07-13T03:05:45;12.30;99.90
16263;DHT22;8239;48.594;8.598;2023-07-13T03:08:16;12.30;99.90
16263;DHT22;8239;48.594;8.598;2023-07-13T03:10:43;12.30;99.90
16263;DHT22;8239;48.594;8.598;2023-07-13T03:13:10;12.40;99.90
16263;DHT22;8239;48.594;8.598;2023-07-13T03:15:37;12.40;99.90
16263;DHT22;8239;48.594;8.598;2023-07-13T03:18:04;12.40;99.90
16263;DHT22;8239;48.594;8.598;2023-07-13T03:20:33;12.40;99.90
16263;DHT22;8239;48.594;8.598;2023-07-13T03:23:01;12.40;99.90
16263;DHT22;8239;48.594;8.598;2023-07-13T03:25:29;12.40;99.90
16263;DHT22;8239;48.594;8.598;2023-07-13T03:27:56;12.40;99.90
16263;DHT22;8239;48.594;8.598;2023-07-13T03:30:23;12.40;99.90
16263;DHT22;8239;48.594;8.598;2023-07-13T03:32:50;12.40;99.90
16263;DHT22;8239;48.594;8.598;2023-07-13T03:35:17;12.40;99.90
16263;DHT22;8239;48.594;8.598;2023-07-13T03:37:44;12.30;99.90
16263;DHT22;8239;48.594;8.598;2023-07-13T03:40:13;12.30;99.90
16263;DHT22;8239;48.594;8.598;2023-07-13T03:42:40;12.20;99.90
16263;DHT22;8239;48.594;8.598;2023-07-13T03:45:08;12.20;99.90
16263;DHT22;8239;48.594;8.598;2023-07-13T03:47:35;12.10;99.90
16263;DHT22;8239;48.594;8.598;2023-07-13T03:50:03;12.10;99.90
16263;DHT22;8239;48.594;8.598;2023-07-13T03:52:30;12.00;99.90
16263;DHT22;8239;48.594;8.598;2023-07-13T03:54:57;12.00;99.90
16263;DHT22;8239;48.594;8.598;2023-07-13T03:57:26;12.00;99.90
16263;DHT22;8239;48.594;8.598;2023-07-13T03:59:53;11.90;99.90
16263;DHT22;8239;48.594;8.598;2023-07-13T04:02:20;11.90;99.90
16263;DHT22;8239;48.594;8.598;2023-07-13T04:04:47;11.90;99.90
16263;DHT22;8239;48.594;8.598;2023-07-13T04:07:14;11.90;99.90
16263;DHT22;8239;48.594;8.598;2023-07-13T04:09:41;11.80;99.90
16263;DHT22;8239;48.594;8.598;2023-07-13T04:12:09;11.80;99.90
16263;DHT22;8239;48.594;8.598;2023-07-13T04:14:37;11.80;99.90
16263;DHT22;8239;48.594;8.598;2023-07-13T04:17:05;11.80;99.90
16263;DHT22;8239;48.594;8.598;2023-07-13T04:19:32;11.80;99.90
16263;DHT22;8239;48.594;8.598;2023-07-13T04:21:59;11.80;99.90
16263;DHT22;8239;48.594;8.598;2023-07-13T04:24:26;11.80;99.90
16263;DHT22;8239;48.594;8.598;2023-07-13T04:26:53;11.80;99.90
16263;DHT22;8239;48.594;8.598;2023-07-13T04:29:21;11.90;99.90
16263;DHT22;8239;48.594;8.598;2023-07-13T04:31:49;11.90;99.90
16263;DHT22;8239;48.594;8.598;2023-07-13T04:34:16;11.90;99.90
16263;DHT22;8239;48.594;8.598;2023-07-13T04:36:43;12.00;99.90
16263;DHT22;8239;48.594;8.598;2023-07-13T04:39:10;12.00;99.90
16263;DHT22;8239;48.594;8.598;2023-07-13T04:41:37;12.10;99.90
16263;DHT22;8239;48.594;8.598;2023-07-13T04:44:04;12.20;99.90
16263;DHT22;8239;48.594;8.598;2023-07-13T04:46:32;12.20;99.90
16263;DHT22;8239;48.594;8.598;2023-07-13T04:49:00;12.40;99.90
16263;DHT22;8239;48.594;8.598;2023-07-13T04:51:29;12.50;99.90
16263;DHT22;8239;48.594;8.598;2023-07-13T04:53:56;12.70;99.90
16263;DHT22;8239;48.594;8.598;2023-07-13T04:56:24;12.90;99.90
16263;DHT22;8239;48.594;8.598;2023-07-13T04:58:51;13.10;99.90
16263;DHT22;8239;48.594;8.598;2023-07-13T05:01:18;13.30;99.90
16263;DHT22;8239;48.594;8.598;2023-07-13T05:03:45;13.50;99.90
16263;DHT22;8239;48.594;8.598;2023-07-13T05:06:14;13.60;99.90
16263;DHT22;8239;48.594;8.598;2023-07-13T05:08:41;13.70;99.90
16263;DHT22;8239;48.594;8.598;2023-07-13T05:11:08;13.80;99.90
16263;DHT22;8239;48.594;8.598;2023-07-13T05:13:35;13.70;99.90
16263;DHT22;8239;48.594;8.598;2023-07-13T05:16:04;13.70;99.90
16263;DHT22;8239;48.594;8.598;2023-07-13T05:18:33;13.70;99.90
16263;DHT22;8239;48.594;8.598;2023-07-13T05:21:02;13.70;99.90
16263;DHT22;8239;48.594;8.598;2023-07-13T05:23:31;13.60;99.90
16263;DHT22;8239;48.594;8.598;2023-07-13T05:25:58;13.70;99.90
16263;DHT22;8239;48.594;8.598;2023-07-13T05:28:26;13.70;99.90
16263;DHT22;8239;48.594;8.598;2023-07-13T05:30:54;13.80;99.90
16263;DHT22;8239;48.594;8.598;2023-07-13T05:33:21;14.00;99.90
16263;DHT22;8239;48.594;8.598;2023-07-13T05:35:48;14.10;99.90
16263;DHT22;8239;48.594;8.598;2023-07-13T05:38:15;14.20;99.90
16263;DHT22;8239;48.594;8.598;2023-07-13T05:40:44;14.20;99.90
16263;DHT22;8239;48.594;8.598;2023-07-13T05:43:12;14.30;99.90
16263;DHT22;8239;48.594;8.598;2023-07-13T05:45:39;14.30;99.90
16263;DHT22;8239;48.594;8.598;2023-07-13T05:48:06;14.40;99.90
16263;DHT22;8239;48.594;8.598;2023-07-13T05:50:33;14.40;99.90
16263;DHT22;8239;48.594;8.598;2023-07-13T05:53:00;14.50;99.90
16263;DHT22;8239;48.594;8.598;2023-07-13T05:55:28;14.60;99.90
16263;DHT22;8239;48.594;8.598;2023-07-13T05:57:56;14.80;99.90
16263;DHT22;8239;48.594;8.598;2023-07-13T06:00:24;15.00;99.90
16263;DHT22;8239;48.594;8.598;2023-07-13T06:02:51;15.20;99.90
16263;DHT22;8239;48.594;8.598;2023-07-13T06:05:19;15.50;99.90
16263;DHT22;8239;48.594;8.598;2023-07-13T06:07:46;15.70;99.90
16263;DHT22;8239;48.594;8.598;2023-07-13T06:10:13;16.00;99.90
16263;DHT22;8239;48.594;8.598;2023-07-13T06:12:40;16.20;99.90
16263;DHT22;8239;48.594;8.598;2023-07-13T06:15:09;16.50;99.90
16263;DHT22;8239;48.594;8.598;2023-07-13T06:17:36;16.80;99.90
16263;DHT22;8239;48.594;8.598;2023-07-13T06:20:04;17.20;99.90
16263;DHT22;8239;48.594;8.598;2023-07-13T06:22:32;17.60;99.90
16263;DHT22;8239;48.594;8.598;2023-07-13T06:24:59;17.80;99.90
16263;DHT22;8239;48.594;8.598;2023-07-13T06:27:26;18.20;99.90
16263;DHT22;8239;48.594;8.598;2023-07-13T06:29:53;18.50;99.90
16263;DHT22;8239;48.594;8.598;2023-07-13T06:32:22;18.70;99.90
16263;DHT22;8239;48.594;8.598;2023-07-13T06:34:49;18.80;99.90
16263;DHT22;8239;48.594;8.598;2023-07-13T06:37:17;18.80;99.90
16263;DHT22;8239;48.594;8.598;2023-07-13T06:39:44;18.70;99.90
16263;DHT22;8239;48.594;8.598;2023-07-13T06:42:11;18.70;99.90
16263;DHT22;8239;48.594;8.598;2023-07-13T06:44:39;18.70;99.90
16263;DHT22;8239;48.594;8.598;2023-07-13T06:47:06;18.80;99.90
16263;DHT22;8239;48.594;8.598;2023-07-13T06:49:35;18.90;99.90
16263;DHT22;8239;48.594;8.598;2023-07-13T06:52:02;19.00;99.90
16263;DHT22;8239;48.594;8.598;2023-07-13T06:54:29;19.60;99.90
16263;DHT22;8239;48.594;8.598;2023-07-13T06:56:56;20.40;99.90
16263;DHT22;8239;48.594;8.598;2023-07-13T06:59:23;21.00;99.90
16263;DHT22;8239;48.594;8.598;2023-07-13T07:01:50;21.80;99.90
16263;DHT22;8239;48.594;8.598;2023-07-13T07:04:17;22.80;99.90
16263;DHT22;8239;48.594;8.598;2023-07-13T07:06:46;23.80;99.90
16263;DHT22;8239;48.594;8.598;2023-07-13T07:09:13;24.70;99.90
16263;DHT22;8239;48.594;8.598;2023-07-13T07:11:42;25.60;99.00
16263;DHT22;8239;48.594;8.598;2023-07-13T07:14:09;26.30;97.80
16263;DHT22;8239;48.594;8.598;2023-07-13T07:16:36;27.00;92.60
16263;DHT22;8239;48.594;8.598;2023-07-13T07:19:03;27.70;91.40
16263;DHT22;8239;48.594;8.598;2023-07-13T07:21:30;28.20;88.50
16263;DHT22;8239;48.594;8.598;2023-07-13T07:23:59;28.70;82.80
16263;DHT22;8239;48.594;8.598;2023-07-13T07:26:26;29.00;84.50
16263;DHT22;8239;48.594;8.598;2023-07-13T07:28:53;29.10;81.40
16263;DHT22;8239;48.594;8.598;2023-07-13T07:31:20;29.40;78.40
16263;DHT22;8239;48.594;8.598;2023-07-13T07:33:47;29.60;76.50
16263;DHT22;8239;48.594;8.598;2023-07-13T07:36:15;29.70;75.70
16263;DHT22;8239;48.594;8.598;2023-07-13T07:38:42;30.10;71.90
16263;DHT22;8239;48.594;8.598;2023-07-13T07:41:11;30.50;73.00
16263;DHT22;8239;48.594;8.598;2023-07-13T07:43:38;30.80;74.40
16263;DHT22;8239;48.594;8.598;2023-07-13T07:46:05;31.20;71.70
16263;DHT22;8239;48.594;8.598;2023-07-13T07:48:32;31.60;70.20
16263;DHT22;8239;48.594;8.598;2023-07-13T07:50:59;32.10;70.80
16263;DHT22;8239;48.594;8.598;2023-07-13T07:53:26;32.40;67.20
16263;DHT22;8239;48.594;8.598;2023-07-13T07:55:53;32.30;68.10
16263;DHT22;8239;48.594;8.598;2023-07-13T07:58:22;32.30;67.00
16263;DHT22;8239;48.594;8.598;2023-07-13T08:00:49;32.40;61.40
16263;DHT22;8239;48.594;8.598;2023-07-13T08:03:16;32.20;62.70
16263;DHT22;8239;48.594;8.598;2023-07-13T08:05:43;32.20;66.10
16263;DHT22;8239;48.594;8.598;2023-07-13T08:08:10;32.30;67.00
16263;DHT22;8239;48.594;8.598;2023-07-13T08:10:37;32.40;65.80
16263;DHT22;8239;48.594;8.598;2023-07-13T08:13:04;32.40;63.90
16263;DHT22;8239;48.594;8.598;2023-07-13T08:15:32;32.40;66.80
16263;DHT22;8239;48.594;8.598;2023-07-13T08:17:59;32.70;60.60
16263;DHT22;8239;48.594;8.598;2023-07-13T08:20:26;32.70;62.00
16263;DHT22;8239;48.594;8.598;2023-07-13T08:22:54;32.70;59.60
16263;DHT22;8239;48.594;8.598;2023-07-13T08:25:21;32.80;59.20
16263;DHT22;8239;48.594;8.598;2023-07-13T08:27:48;32.90;57.50
16263;DHT22;8239;48.594;8.598;2023-07-13T08:30:15;32.80;57.00
16263;DHT22;8239;48.594;8.598;2023-07-13T08:32:44;33.10;61.30
16263;DHT22;8239;48.594;8.598;2023-07-13T08:35:11;33.50;60.60
16263;DHT22;8239;48.594;8.598;2023-07-13T08:37:39;33.90;54.80
16263;DHT22;8239;48.594;8.598;2023-07-13T08:40:08;33.80;52.50
16263;DHT22;8239;48.594;8.598;2023-07-13T08:42:39;33.50;56.20
16263;DHT22;8239;48.594;8.598;2023-07-13T08:45:12;33.40;48.50
16263;DHT22;8239;48.594;8.598;2023-07-13T08:47:47;33.40;49.10
16263;DHT22;8239;48.594;8.598;2023-07-13T08:50:18;33.30;50.00
16263;DHT22;8239;48.594;8.598;2023-07-13T08:52:46;33.60;53.70
16263;DHT22;8239;48.594;8.598;2023-07-13T08:55:16;34.00;51.50
16263;DHT22;8239;48.594;8.598;2023-07-13T08:57:46;34.20;50.60
16263;DHT22;8239;48.594;8.598;2023-07-13T09:00:15;34.50;52.70
16263;DHT22;8239;48.594;8.598;2023-07-13T09:02:48;34.70;50.40
16263;DHT22;8239;48.594;8.598;2023-07-13T09:05:28;35.00;45.60
16263;DHT22;8239;48.594;8.598;2023-07-13T09:08:10;35.10;46.90
16263;DHT22;8239;48.594;8.598;2023-07-13T09:10:51;34.70;45.60
16263;DHT22;8239;48.594;8.598;2023-07-13T09:13:25;33.80;45.30
16263;DHT22;8239;48.594;8.598;2023-07-13T09:15:55;32.80;48.00
16263;DHT22;8239;48.594;8.598;2023-07-13T09:18:28;32.80;46.60
16263;DHT22;8239;48.594;8.598;2023-07-13T09:20:59;33.20;45.60
16263;DHT22;8239;48.594;8.598;2023-07-13T09:23:29;33.10;47.10
16263;DHT22;8239;48.594;8.598;2023-07-13T09:26:02;32.70;47.00
16263;DHT22;8239;48.594;8.598;2023-07-13T09:28:37;32.60;47.80
16263;DHT22;8239;48.594;8.598;2023-07-13T09:31:07;32.90;49.70
16263;DHT22;8239;48.594;8.598;2023-07-13T09:33:37;33.30;45.40
16263;DHT22;8239;48.594;8.598;2023-07-13T09:36:18;33.10;42.80
16263;DHT22;8239;48.594;8.598;2023-07-13T09:38:46;32.40;45.40
16263;DHT22;8239;48.594;8.598;2023-07-13T09:41:21;32.10;43.20
16263;DHT22;8239;48.594;8.598;2023-07-13T09:44:17;31.90;45.00
16263;DHT22;8239;48.594;8.598;2023-07-13T09:46:47;32.00;45.10
16263;DHT22;8239;48.594;8.598;2023-07-13T09:49:24;32.20;46.70
16263;DHT22;8239;48.594;8.598;2023-07-13T09:51:58;32.30;50.50
16263;DHT22;8239;48.594;8.598;2023-07-13T09:54:26;32.40;47.60
16263;DHT22;8239;48.594;8.598;2023-07-13T09:56:57;32.60;47.50
16263;DHT22;8239;48.594;8.598;2023-07-13T09:59:29;32.60;47.20
16263;DHT22;8239;48.594;8.598;2023-07-13T10:02:26;32.40;44.30
16263;DHT22;8239;48.594;8.598;2023-07-13T10:05:03;32.00;41.40
16263;DHT22;8239;48.594;8.598;2023-07-13T10:07:31;31.60;44.70
16263;DHT22;8239;48.594;8.598;2023-07-13T10:10:00;31.60;48.00
16263;DHT22;8239;48.594;8.598;2023-07-13T10:12:29;31.70;50.30
16263;DHT22;8239;48.594;8.598;2023-07-13T10:15:00;31.70;50.20
16263;DHT22;8239;48.594;8.598;2023-07-13T10:17:29;31.80;52.40
16263;DHT22;8239;48.594;8.598;2023-07-13T10:20:02;31.90;44.80
16263;DHT22;8239;48.594;8.598;2023-07-13T10:22:36;31.80;44.70
16263;DHT22;8239;48.594;8.598;2023-07-13T10:25:15;31.50;46.10
16263;DHT22;8239;48.594;8.598;2023-07-13T10:27:44;30.90;44.00
16263;DHT22;8239;48.594;8.598;2023-07-13T10:30:17;30.60;49.30
16263;DHT22;8239;48.594;8.598;2023-07-13T10:32:49;30.30;46.00
16263;DHT22;8239;48.594;8.598;2023-07-13T10:35:21;29.60;45.00
16263;DHT22;8239;48.594;8.598;2023-07-13T10:37:51;29.10;48.00
16263;DHT22;8239;48.594;8.598;2023-07-13T10:40:23;29.00;50.20
16263;DHT22;8239;48.594;8.598;2023-07-13T10:42:53;29.20;54.50
16263;DHT22;8239;48.594;8.598;2023-07-13T10:45:23;29.40;46.00
16263;DHT22;8239;48.594;8.598;2023-07-13T10:47:52;29.40;49.20
16263;DHT22;8239;48.594;8.598;2023-07-13T10:50:24;29.60;53.10
16263;DHT22;8239;48.594;8.598;2023-07-13T10:52:53;29.90;51.40
16263;DHT22;8239;48.594;8.598;2023-07-13T10:55:35;30.20;50.00
16263;DHT22;8239;48.594;8.598;2023-07-13T10:58:12;30.30;50.00
16263;DHT22;8239;48.594;8.598;2023-07-13T11:00:51;30.20;47.00
16263;DHT22;8239;48.594;8.598;2023-07-13T11:03:22;30.20;49.20
16263;DHT22;8239;48.594;8.598;2023-07-13T11:05:51;30.30;50.30
16263;DHT22;8239;48.594;8.598;2023-07-13T11:08:35;30.50;49.30
16263;DHT22;8239;48.594;8.598;2023-07-13T11:11:35;30.40;44.40
16263;DHT22;8239;48.594;8.598;2023-07-13T11:14:04;30.30;52.90
16263;DHT22;8239;48.594;8.598;2023-07-13T11:16:44;30.50;46.30
16263;DHT22;8239;48.594;8.598;2023-07-13T11:19:29;30.50;47.90
16263;DHT22;8239;48.594;8.598;2023-07-13T11:22:21;30.40;45.90
16263;DHT22;8239;48.594;8.598;2023-07-13T11:24:57;30.20;48.40
16263;DHT22;8239;48.594;8.598;2023-07-13T11:27:41;30.10;47.20
16263;DHT22;8239;48.594;8.598;2023-07-13T11:30:31;29.90;51.90
16263;DHT22;8239;48.594;8.598;2023-07-13T11:33:09;30.20;53.10
16263;DHT22;8239;48.594;8.598;2023-07-13T11:35:44;29.90;47.60
16263;DHT22;8239;48.594;8.598;2023-07-13T11:38:16;29.80;47.60
16263;DHT22;8239;48.594;8.598;2023-07-13T11:40:45;29.70;51.50
16263;DHT22;8239;48.594;8.598;2023-07-13T11:43:14;29.80;54.10
16263;DHT22;8239;48.594;8.598;2023-07-13T11:45:41;29.60;56.60
16263;DHT22;8239;48.594;8.598;2023-07-13T11:48:20;29.80;56.40
16263;DHT22;8239;48.594;8.598;2023-07-13T11:51:04;30.10;50.60
16263;DHT22;8239;48.594;8.598;2023-07-13T11:53:39;30.20;51.90
16263;DHT22;8239;48.594;8.598;2023-07-13T11:56:07;30.20;53.60
16263;DHT22;8239;48.594;8.598;2023-07-13T11:58:35;30.30;51.00
16263;DHT22;8239;48.594;8.598;2023-07-13T12:01:03;29.70;49.20
16263;DHT22;8239;48.594;8.598;2023-07-13T12:03:33;29.20;53.20
16263;DHT22;8239;48.594;8.598;2023-07-13T12:06:02;28.60;53.70
16263;DHT22;8239;48.594;8.598;2023-07-13T12:08:43;28.20;51.20
16263;DHT22;8239;48.594;8.598;2023-07-13T12:11:17;28.30;48.00
16263;DHT22;8239;48.594;8.598;2023-07-13T12:13:45;28.50;52.10
16263;DHT22;8239;48.594;8.598;2023-07-13T12:16:28;29.00;53.90
16263;DHT22;8239;48.594;8.598;2023-07-13T12:18:56;29.80;55.40
16263;DHT22;8239;48.594;8.598;2023-07-13T12:21:38;30.60;51.70
16263;DHT22;8239;48.594;8.598;2023-07-13T12:24:14;30.80;50.80
16263;DHT22;8239;48.594;8.598;2023-07-13T12:26:41;30.80;49.30
16263;DHT22;8239;48.594;8.598;2023-07-13T12:29:15;30.90;53.60
16263;DHT22;8239;48.594;8.598;2023-07-13T12:31:46;31.00;47.80
16263;DHT22;8239;48.594;8.598;2023-07-13T12:34:14;30.70;50.20
16263;DHT22;8239;48.594;8.598;2023-07-13T12:36:46;30.60;54.70
16263;DHT22;8239;48.594;8.598;2023-07-13T12:39:18;30.40;51.40
16263;DHT22;8239;48.594;8.598;2023-07-13T12:41:51;30.00;48.90
16263;DHT22;8239;48.594;8.598;2023-07-13T12:44:25;29.50;46.60
16263;DHT22;8239;48.594;8.598;2023-07-13T12:46:55;28.90;49.20
16263;DHT22;8239;48.594;8.598;2023-07-13T12:49:31;28.70;50.60
16263;DHT22;8239;48.594;8.598;2023-07-13T12:52:02;28.80;55.80
16263;DHT22;8239;48.594;8.598;2023-07-13T12:54:31;28.90;55.10
16263;DHT22;8239;48.594;8.598;2023-07-13T12:57:00;28.80;53.00
16263;DHT22;8239;48.594;8.598;2023-07-13T12:59:31;28.60;49.20
16263;DHT22;8239;48.594;8.598;2023-07-13T13:02:02;28.50;49.40
16263;DHT22;8239;48.594;8.598;2023-07-13T13:04:46;28.70;51.50
16263;DHT22;8239;48.594;8.598;2023-07-13T13:07:14;29.30;52.90
16263;DHT22;8239;48.594;8.598;2023-07-13T13:09:46;29.90;52.40
16263;DHT22;8239;48.594;8.598;2023-07-13T13:12:14;30.20;48.90
16263;DHT22;8239;48.594;8.598;2023-07-13T13:14:50;29.80;49.30
16263;DHT22;8239;48.594;8.598;2023-07-13T13:17:20;29.40;49.10
16263;DHT22;8239;48.594;8.598;2023-07-13T13:19:52;29.50;52.60
16263;DHT22;8239;48.594;8.598;2023-07-13T13:22:25;29.70;49.40
16263;DHT22;8239;48.594;8.598;2023-07-13T13:24:53;29.40;48.10
16263;DHT22;8239;48.594;8.598;2023-07-13T13:29:59;29.20;49.30
16263;DHT22;8239;48.594;8.598;2023-07-13T13:32:26;29.30;51.10
16263;DHT22;8239;48.594;8.598;2023-07-13T13:34:54;29.80;52.70
16263;DHT22;8239;48.594;8.598;2023-07-13T13:37:22;30.30;51.30
16263;DHT22;8239;48.594;8.598;2023-07-13T13:39:51;30.50;51.50
16263;DHT22;8239;48.594;8.598;2023-07-13T13:42:20;30.20;47.70
16263;DHT22;8239;48.594;8.598;2023-07-13T13:44:50;30.00;52.00
16263;DHT22;8239;48.594;8.598;2023-07-13T13:47:25;30.30;52.20
16263;DHT22;8239;48.594;8.598;2023-07-13T13:49:54;30.40;52.10
16263;DHT22;8239;48.594;8.598;2023-07-13T13:52:21;30.50;50.50
16263;DHT22;8239;48.594;8.598;2023-07-13T13:54:48;30.40;53.20
16263;DHT22;8239;48.594;8.598;2023-07-13T13:57:15;30.50;52.90
16263;DHT22;8239;48.594;8.598;2023-07-13T13:59:43;30.20;51.90
16263;DHT22;8239;48.594;8.598;2023-07-13T14:02:25;30.00;54.30
16263;DHT22;8239;48.594;8.598;2023-07-13T14:04:55;29.60;54.70
16263;DHT22;8239;48.594;8.598;2023-07-13T14:07:23;29.30;56.50
16263;DHT22;8239;48.594;8.598;2023-07-13T14:09:51;29.10;57.40
16263;DHT22;8239;48.594;8.598;2023-07-13T14:12:18;29.40;58.60
16263;DHT22;8239;48.594;8.598;2023-07-13T14:14:46;30.00;57.70
16263;DHT22;8239;48.594;8.598;2023-07-13T14:17:19;30.30;57.00
16263;DHT22;8239;48.594;8.598;2023-07-13T14:19:48;30.40;56.20
16263;DHT22;8239;48.594;8.598;2023-07-13T14:22:16;30.50;54.40
16263;DHT22;8239;48.594;8.598;2023-07-13T14:24:44;30.30;54.10
16263;DHT22;8239;48.594;8.598;2023-07-13T14:27:11;29.80;50.80
16263;DHT22;8239;48.594;8.598;2023-07-13T14:29:39;29.20;53.60
16263;DHT22;8239;48.594;8.598;2023-07-13T14:32:10;28.80;56.50
16263;DHT22;8239;48.594;8.598;2023-07-13T14:34:38;28.90;56.70
16263;DHT22;8239;48.594;8.598;2023-07-13T14:37:05;29.10;54.00
16263;DHT22;8239;48.594;8.598;2023-07-13T14:39:36;29.40;55.60
16263;DHT22;8239;48.594;8.598;2023-07-13T14:42:04;29.60;54.60
16263;DHT22;8239;48.594;8.598;2023-07-13T14:44:31;29.80;54.30
16263;DHT22;8239;48.594;8.598;2023-07-13T14:47:00;30.20;52.80
16263;DHT22;8239;48.594;8.598;2023-07-13T14:49:32;30.10;51.80
16263;DHT22;8239;48.594;8.598;2023-07-13T14:52:02;29.50;49.30
16263;DHT22;8239;48.594;8.598;2023-07-13T14:54:29;29.30;51.90
16263;DHT22;8239;48.594;8.598;2023-07-13T14:56:56;29.00;51.40
16263;DHT22;8239;48.594;8.598;2023-07-13T14:59:23;28.90;50.60
16263;DHT22;8239;48.594;8.598;2023-07-13T15:01:50;28.90;51.90
16263;DHT22;8239;48.594;8.598;2023-07-13T15:04:17;28.70;50.90
16263;DHT22;8239;48.594;8.598;2023-07-13T15:06:56;28.40;53.00
16263;DHT22;8239;48.594;8.598;2023-07-13T15:09:25;27.80;53.90
16263;DHT22;8239;48.594;8.598;2023-07-13T15:11:52;27.90;55.50
16263;DHT22;8239;48.594;8.598;2023-07-13T15:14:20;28.00;55.00
16263;DHT22;8239;48.594;8.598;2023-07-13T15:16:48;28.20;54.10
16263;DHT22;8239;48.594;8.598;2023-07-13T15:19:16;28.60;55.80
16263;DHT22;8239;48.594;8.598;2023-07-13T15:21:44;29.00;56.20
16263;DHT22;8239;48.594;8.598;2023-07-13T15:24:13;29.20;53.90
16263;DHT22;8239;48.594;8.598;2023-07-13T15:26:41;29.40;56.20
16263;DHT22;8239;48.594;8.598;2023-07-13T15:29:10;29.40;52.70
16263;DHT22;8239;48.594;8.598;2023-07-13T15:31:38;29.10;52.40
16263;DHT22;8239;48.594;8.598;2023-07-13T15:34:12;28.70;53.60
16263;DHT22;8239;48.594;8.598;2023-07-13T15:36:39;28.50;56.60
16263;DHT22;8239;48.594;8.598;2023-07-13T15:39:06;28.60;59.00
16263;DHT22;8239;48.594;8.598;2023-07-13T15:41:35;28.90;58.90
16263;DHT22;8239;48.594;8.598;2023-07-13T15:44:19;29.20;57.30
16263;DHT22;8239;48.594;8.598;2023-07-13T15:46:46;29.60;57.70
16263;DHT22;8239;48.594;8.598;2023-07-13T15:49:13;30.10;58.00
16263;DHT22;8239;48.594;8.598;2023-07-13T15:51:41;30.30;49.70
16263;DHT22;8239;48.594;8.598;2023-07-13T15:54:13;30.20;48.20
16263;DHT22;8239;48.594;8.598;2023-07-13T15:56:42;29.70;51.30
16263;DHT22;8239;48.594;8.598;2023-07-13T15:59:10;29.40;55.30
16263;DHT22;8239;48.594;8.598;2023-07-13T16:01:40;29.10;56.40